sensor_id;sensor_type;location;lat;lon;timestamp;temperature;humidity
6810;DHT22;3443;48.812;9.112;2024-03-17T00:02:06;7.40;99.90
6810;DHT22;3443;48.812;9.112;2024-03-17T00:04:31;7.40;99.90
6810;DHT22;3443;48.812;9.112;2024-03-17T00:06:57;7.40;99.90
6810;DHT22;3443;48.812;9.112;2024-03-17T00:09:23;7.30;99.90
6810;DHT22;3443;48.812;9.112;2024-03-17T00:11:49;7.30;99.90
6810;DHT22;3443;48.812;9.112;2024-03-17T00:14:15;7.30;99.90
6810;DHT22;3443;48.812;9.112;2024-03-17T00:16:41;7.30;99.90
6810;DHT22;3443;48.812;9.112;2024-03-17T00:19:07;7.30;99.90
6810;DHT22;3443;48.812;9.112;2024-03-17T00:21:32;7.20;99.90
6810;DHT22;3443;48.812;9.112;2024-03-17T00:23:58;7.30;99.90
6810;DHT22;3443;48.812;9.112;2024-03-17T00:26:23;7.20;99.90
6810;DHT22;3443;48.812;9.112;2024-03-17T00:28:49;7.20;99.90
6810;DHT22;3443;48.812;9.112;2024-03-17T00:31:16;7.20;99.90
6810;DHT22;3443;48.812;9.112;2024-03-17T00:33:42;7.20;99.90
6810;DHT22;3443;48.812;9.112;2024-03-17T00:36:08;7.20;99.90
6810;DHT22;3443;48.812;9.112;2024-03-17T00:38:33;7.20;99.90
6810;DHT22;3443;48.812;9.112;2024-03-17T00:40:59;7.20;99.90
6810;DHT22;3443;48.812;9.112;2024-03-17T00:43:25;7.10;99.90
6810;DHT22;3443;48.812;9.112;2024-03-17T00:45:54;7.10;99.90
6810;DHT22;3443;48.812;9.112;2024-03-17T00:48:19;7.10;99.90
6810;DHT22;3443;48.812;9.112;2024-03-17T00:50:45;7.10;99.90
6810;DHT22;3443;48.812;9.112;2024-03-17T00:53:11;7.00;99.90
6810;DHT22;3443;48.812;9.112;2024-03-17T00:55:37;7.10;99.90
6810;DHT22;3443;48.812;9.112;2024-03-17T00:58:03;7.10;99.90
6810;DHT22;3443;48.812;9.112;2024-03-17T01:00:29;7.00;99.90
6810;DHT22;3443;48.812;9.112;2024-03-17T01:02:54;7.00;99.90
6810;DHT22;3443;48.812;9.112;2024-03-17T01:05:20;7.10;99.90
6810;DHT22;3443;48.812;9.112;2024-03-17T01:07:45;7.10;99.90
6810;DHT22;3443;48.812;9.112;2024-03-17T01:10:13;7.10;99.90
6810;DHT22;3443;48.812;9.112;2024-03-17T01:12:38;7.00;99.90
6810;DHT22;3443;48.812;9.112;2024-03-17T01:15:05;6.90;99.90
6810;DHT22;3443;48.812;9.112;2024-03-17T01:17:31;6.90;99.90
6810;DHT22;3443;48.812;9.112;2024-03-17T01:19:57;6.90;99.90
6810;DHT22;3443;48.812;9.112;2024-03-17T01:22:23;6.90;99.90
6810;DHT22;3443;48.812;9.112;2024-03-17T01:24:48;6.90;99.90
6810;DHT22;3443;48.812;9.112;2024-03-17T01:27:14;6.90;99.90
6810;DHT22;3443;48.812;9.112;2024-03-17T01:29:42;6.80;99.90
6810;DHT22;3443;48.812;9.112;2024-03-17T01:32:08;6.90;99.90
6810;DHT22;3443;48.812;9.112;2024-03-17T01:34:34;6.80;99.90
6810;DHT22;3443;48.812;9.112;2024-03-17T01:36:59;6.70;99.90
6810;DHT22;3443;48.812;9.112;2024-03-17T01:39:25;6.70;99.90
6810;DHT22;3443;48.812;9.112;2024-03-17T01:41:51;6.70;99.90
6810;DHT22;3443;48.812;9.112;2024-03-17T01:44:29;6.70;99.90
6810;DHT22;3443;48.812;9.112;2024-03-17T01:46:56;6.60;99.90
6810;DHT22;3443;48.812;9.112;2024-03-17T01:49:23;6.60;99.90
6810;DHT22;3443;48.812;9.112;2024-03-17T01:51:50;6.50;99.90
6810;DHT22;3443;48.812;9.112;2024-03-17T01:54:16;6.50;99.90
6810;DHT22;3443;48.812;9.112;2024-03-17T01:56:42;6.60;99.90
6810;DHT22;3443;48.812;9.112;2024-03-17T01:59:09;6.50;99.90
6810;DHT22;3443;48.812;9.112;2024-03-17T02:01:38;6.60;99.90
6810;DHT22;3443;48.812;9.112;2024-03-17T02:04:04;6.50;99.90
6810;DHT22;3443;48.812;9.112;2024-03-17T02:06:30;6.40;99.90
6810;DHT22;3443;48.812;9.112;2024-03-17T02:08:56;6.50;99.90
6810;DHT22;3443;48.812;9.112;2024-03-17T02:11:32;6.50;99.90
6810;DHT22;3443;48.812;9.112;2024-03-17T02:13:59;6.50;99.90
6810;DHT22;3443;48.812;9.112;2024-03-17T02:16:25;6.50;99.90
6810;DHT22;3443;48.812;9.112;2024-03-17T02:18:58;6.50;99.90
6810;DHT22;3443;48.812;9.112;2024-03-17T02:21:25;6.50;99.90
6810;DHT22;3443;48.812;9.112;2024-03-17T02:23:56;6.40;99.90
6810;DHT22;3443;48.812;9.112;2024-03-17T02:26:23;6.30;99.90
6810;DHT22;3443;48.812;9.112;2024-03-17T02:28:49;6.30;99.90
6810;DHT22;3443;48.812;9.112;2024-03-17T02:31:15;6.40;99.90
6810;DHT22;3443;48.812;9.112;2024-03-17T02:33:42;6.40;99.90
6810;DHT22;3443;48.812;9.112;2024-03-17T02:36:09;6.40;99.90
6810;DHT22;3443;48.812;9.112;2024-03-17T02:38:35;6.40;99.90
6810;DHT22;3443;48.812;9.112;2024-03-17T02:41:20;6.50;99.90
6810;DHT22;3443;48.812;9.112;2024-03-17T02:43:46;6.50;99.90
6810;DHT22;3443;48.812;9.112;2024-03-17T02:46:13;6.50;99.90
6810;DHT22;3443;48.812;9.112;2024-03-17T02:48:42;6.50;99.90
6810;DHT22;3443;48.812;9.112;2024-03-17T02:51:16;6.50;99.90
6810;DHT22;3443;48.812;9.112;2024-03-17T02:53:43;6.50;99.90
6810;DHT22;3443;48.812;9.112;2024-03-17T02:56:10;6.40;99.90
6810;DHT22;3443;48.812;9.112;2024-03-17T02:58:37;6.40;99.90
6810;DHT22;3443;48.812;9.112;2024-03-17T03:01:04;6.40;99.90
6810;DHT22;3443;48.812;9.112;2024-03-17T03:03:30;6.40;99.90
6810;DHT22;3443;48.812;9.112;2024-03-17T03:05:56;6.30;99.90
6810;DHT22;3443;48.812;9.112;2024-03-17T03:08:38;6.30;99.90
6810;DHT22;3443;48.812;9.112;2024-03-17T03:11:07;6.20;99.90
6810;DHT22;3443;48.812;9.112;2024-03-17T03:13:36;6.10;99.90
6810;DHT22;3443;48.812;9.112;2024-03-17T03:16:02;6.10;99.90
6810;DHT22;3443;48.812;9.112;2024-03-17T03:18:28;6.10;99.90
6810;DHT22;3443;48.812;9.112;2024-03-17T03:20:54;6.10;99.90
6810;DHT22;3443;48.812;9.112;2024-03-17T03:23:19;6.10;99.90
6810;DHT22;3443;48.812;9.112;2024-03-17T03:25:45;6.20;99.90
6810;DHT22;3443;48.812;9.112;2024-03-17T03:28:14;6.10;99.90
6810;DHT22;3443;48.812;9.112;2024-03-17T03:30:39;6.10;99.90
6810;DHT22;3443;48.812;9.112;2024-03-17T03:33:05;6.10;99.90
6810;DHT22;3443;48.812;9.112;2024-03-17T03:35:31;6.10;99.90
6810;DHT22;3443;48.812;9.112;2024-03-17T03:37:57;6.10;99.90
6810;DHT22;3443;48.812;9.112;2024-03-17T03:40:22;6.10;99.90
6810;DHT22;3443;48.812;9.112;2024-03-17T03:42:48;6.00;99.90
6810;DHT22;3443;48.812;9.112;2024-03-17T03:45:14;6.00;99.90
6810;DHT22;3443;48.812;9.112;2024-03-17T03:47:43;6.10;99.90
6810;DHT22;3443;48.812;9.112;2024-03-17T03:50:09;5.90;99.90
6810;DHT22;3443;48.812;9.112;2024-03-17T03:52:36;5.80;99.90
6810;DHT22;3443;48.812;9.112;2024-03-17T03:55:02;5.80;99.90
6810;DHT22;3443;48.812;9.112;2024-03-17T03:57:36;5.80;99.90
6810;DHT22;3443;48.812;9.112;2024-03-17T04:00:03;5.80;99.90
6810;DHT22;3443;48.812;9.112;2024-03-17T04:02:40;5.80;99.90
6810;DHT22;3443;48.812;9.112;2024-03-17T04:05:07;5.80;99.90
6810;DHT22;3443;48.812;9.112;2024-03-17T04:07:33;5.80;99.90
6810;DHT22;3443;48.812;9.112;2024-03-17T04:10:00;5.80;99.90
6810;DHT22;3443;48.812;9.112;2024-03-17T04:12:25;5.90;99.90
6810;DHT22;3443;48.812;9.112;2024-03-17T04:14:51;5.90;99.90
6810;DHT22;3443;48.812;9.112;2024-03-17T04:17:19;5.80;99.90
6810;DHT22;3443;48.812;9.112;2024-03-17T04:19:49;5.90;99.90
6810;DHT22;3443;48.812;9.112;2024-03-17T04:22:16;5.80;99.90
6810;DHT22;3443;48.812;9.112;2024-03-17T04:24:45;5.80;99.90
6810;DHT22;3443;48.812;9.112;2024-03-17T04:27:11;5.70;99.90
6810;DHT22;3443;48.812;9.112;2024-03-17T04:29:37;5.70;99.90
6810;DHT22;3443;48.812;9.112;2024-03-17T04:32:03;5.70;99.90
6810;DHT22;3443;48.812;9.112;2024-03-17T04:34:30;5.70;99.90
6810;DHT22;3443;48.812;9.112;2024-03-17T04:36:56;5.70;99.90
6810;DHT22;3443;48.812;9.112;2024-03-17T04:39:23;5.70;99.90
6810;DHT22;3443;48.812;9.112;2024-03-17T04:41:48;5.60;99.90
6810;DHT22;3443;48.812;9.112;2024-03-17T04:44:15;5.60;99.90
6810;DHT22;3443;48.812;9.112;2024-03-17T04:46:41;5.60;99.90
6810;DHT22;3443;48.812;9.112;2024-03-17T04:49:06;5.50;99.90
6810;DHT22;3443;48.812;9.112;2024-03-17T04:51:33;5.40;99.90
6810;DHT22;3443;48.812;9.112;2024-03-17T04:53:59;5.40;99.90
6810;DHT22;3443;48.812;9.112;2024-03-17T04:56:25;5.40;99.90
6810;DHT22;3443;48.812;9.112;2024-03-17T04:58:50;5.40;99.90
6810;DHT22;3443;48.812;9.112;2024-03-17T05:01:16;5.40;99.90
6810;DHT22;3443;48.812;9.112;2024-03-17T05:03:41;5.30;99.90
6810;DHT22;3443;48.812;9.112;2024-03-17T05:06:07;5.30;99.90
6810;DHT22;3443;48.812;9.112;2024-03-17T05:08:33;5.30;99.90
6810;DHT22;3443;48.812;9.112;2024-03-17T05:11:01;5.30;99.90
6810;DHT22;3443;48.812;9.112;2024-03-17T05:13:34;5.30;99.90
6810;DHT22;3443;48.812;9.112;2024-03-17T05:16:00;5.30;99.90
6810;DHT22;3443;48.812;9.112;2024-03-17T05:18:26;5.30;99.90
6810;DHT22;3443;48.812;9.112;2024-03-17T05:21:18;5.30;99.90
6810;DHT22;3443;48.812;9.112;2024-03-17T05:23:43;5.20;99.90
6810;DHT22;3443;48.812;9.112;2024-03-17T05:26:09;5.20;99.90
6810;DHT22;3443;48.812;9.112;2024-03-17T05:28:35;5.20;99.90
6810;DHT22;3443;48.812;9.112;2024-03-17T05:31:00;5.20;99.90
6810;DHT22;3443;48.812;9.112;2024-03-17T05:33:26;5.20;99.90
6810;DHT22;3443;48.812;9.112;2024-03-17T05:35:56;5.30;99.90
6810;DHT22;3443;48.812;9.112;2024-03-17T05:38:23;5.30;99.90
6810;DHT22;3443;48.812;9.112;2024-03-17T05:40:59;5.30;99.90
6810;DHT22;3443;48.812;9.112;2024-03-17T05:43:26;5.30;99.90
6810;DHT22;3443;48.812;9.112;2024-03-17T05:45:53;5.30;99.90
6810;DHT22;3443;48.812;9.112;2024-03-17T05:48:19;5.40;99.90
6810;DHT22;3443;48.812;9.112;2024-03-17T05:50:45;5.40;99.90
6810;DHT22;3443;48.812;9.112;2024-03-17T05:53:11;5.40;99.90
6810;DHT22;3443;48.812;9.112;2024-03-17T05:55:37;5.50;99.90
6810;DHT22;3443;48.812;9.112;2024-03-17T05:58:03;5.50;99.90
6810;DHT22;3443;48.812;9.112;2024-03-17T06:00:29;5.50;99.90
6810;DHT22;3443;48.812;9.112;2024-03-17T06:02:56;5.40;99.90
6810;DHT22;3443;48.812;9.112;2024-03-17T06:05:22;5.40;99.90
6810;DHT22;3443;48.812;9.112;2024-03-17T06:07:48;5.40;99.90
6810;DHT22;3443;48.812;9.112;2024-03-17T06:10:14;5.40;99.90
6810;DHT22;3443;48.812;9.112;2024-03-17T06:12:39;5.40;99.90
6810;DHT22;3443;48.812;9.112;2024-03-17T06:15:05;5.40;99.90
6810;DHT22;3443;48.812;9.112;2024-03-17T06:17:31;5.50;99.90
6810;DHT22;3443;48.812;9.112;2024-03-17T06:19:57;5.50;99.90
6810;DHT22;3443;48.812;9.112;2024-03-17T06:22:23;5.50;99.90
6810;DHT22;3443;48.812;9.112;2024-03-17T06:24:49;5.50;99.90
6810;DHT22;3443;48.812;9.112;2024-03-17T06:27:14;5.60;99.90
6810;DHT22;3443;48.812;9.112;2024-03-17T06:29:41;5.60;99.90
6810;DHT22;3443;48.812;9.112;2024-03-17T06:32:08;5.60;99.90
6810;DHT22;3443;48.812;9.112;2024-03-17T06:34:33;5.60;99.90
6810;DHT22;3443;48.812;9.112;2024-03-17T06:36:59;5.60;99.90
6810;DHT22;3443;48.812;9.112;2024-03-17T06:39:25;5.60;99.90
6810;DHT22;3443;48.812;9.112;2024-03-17T06:41:51;5.60;99.90
6810;DHT22;3443;48.812;9.112;2024-03-17T06:44:17;5.70;99.90
6810;DHT22;3443;48.812;9.112;2024-03-17T06:46:42;5.80;99.90
6810;DHT22;3443;48.812;9.112;2024-03-17T06:49:09;5.80;99.90
6810;DHT22;3443;48.812;9.112;2024-03-17T06:51:35;5.90;99.90
6810;DHT22;3443;48.812;9.112;2024-03-17T06:54:01;6.00;99.90
6810;DHT22;3443;48.812;9.112;2024-03-17T06:56:26;6.00;99.90
6810;DHT22;3443;48.812;9.112;2024-03-17T06:58:52;6.00;99.90
6810;DHT22;3443;48.812;9.112;2024-03-17T07:01:17;6.10;99.90
6810;DHT22;3443;48.812;9.112;2024-03-17T07:03:44;6.10;99.90
6810;DHT22;3443;48.812;9.112;2024-03-17T07:06:10;6.20;99.90
6810;DHT22;3443;48.812;9.112;2024-03-17T07:08:35;6.30;99.90
6810;DHT22;3443;48.812;9.112;2024-03-17T07:11:06;6.40;99.90
6810;DHT22;3443;48.812;9.112;2024-03-17T07:13:36;6.60;99.90
6810;DHT22;3443;48.812;9.112;2024-03-17T07:16:03;6.70;99.90
6810;DHT22;3443;48.812;9.112;2024-03-17T07:18:32;6.90;99.90
6810;DHT22;3443;48.812;9.112;2024-03-17T07:21:04;7.00;99.90
6810;DHT22;3443;48.812;9.112;2024-03-17T07:23:30;7.20;99.90
6810;DHT22;3443;48.812;9.112;2024-03-17T07:25:58;7.30;99.90
6810;DHT22;3443;48.812;9.112;2024-03-17T07:28:24;7.40;99.90
6810;DHT22;3443;48.812;9.112;2024-03-17T07:30:55;7.40;99.90
6810;DHT22;3443;48.812;9.112;2024-03-17T07:33:22;7.40;99.90
6810;DHT22;3443;48.812;9.112;2024-03-17T07:38:18;7.50;99.90
6810;DHT22;3443;48.812;9.112;2024-03-17T07:40:44;7.50;99.90
6810;DHT22;3443;48.812;9.112;2024-03-17T07:43:10;7.60;99.90
6810;DHT22;3443;48.812;9.112;2024-03-17T07:45:35;7.70;99.90
6810;DHT22;3443;48.812;9.112;2024-03-17T07:48:01;7.80;99.90
6810;DHT22;3443;48.812;9.112;2024-03-17T07:50:26;7.90;99.90
6810;DHT22;3443;48.812;9.112;2024-03-17T07:52:52;8.10;99.90
6810;DHT22;3443;48.812;9.112;2024-03-17T07:55:18;8.30;99.90
6810;DHT22;3443;48.812;9.112;2024-03-17T07:57:43;8.40;99.90
6810;DHT22;3443;48.812;9.112;2024-03-17T08:00:09;8.60;99.90
6810;DHT22;3443;48.812;9.112;2024-03-17T08:02:47;8.70;99.90
6810;DHT22;3443;48.812;9.112;2024-03-17T08:05:13;8.90;99.90
6810;DHT22;3443;48.812;9.112;2024-03-17T08:07:39;9.10;99.90
6810;DHT22;3443;48.812;9.112;2024-03-17T08:10:05;9.10;99.90
6810;DHT22;3443;48.812;9.112;2024-03-17T08:12:30;9.30;99.90
6810;DHT22;3443;48.812;9.112;2024-03-17T08:14:56;9.30;99.90
6810;DHT22;3443;48.812;9.112;2024-03-17T08:17:22;9.60;99.90
6810;DHT22;3443;48.812;9.112;2024-03-17T08:19:47;9.70;99.90
6810;DHT22;3443;48.812;9.112;2024-03-17T08:22:13;9.80;99.90
6810;DHT22;3443;48.812;9.112;2024-03-17T08:24:40;9.90;99.90
6810;DHT22;3443;48.812;9.112;2024-03-17T08:27:05;10.00;99.90
6810;DHT22;3443;48.812;9.112;2024-03-17T08:29:32;10.00;99.90
6810;DHT22;3443;48.812;9.112;2024-03-17T08:31:58;10.00;99.90
6810;DHT22;3443;48.812;9.112;2024-03-17T08:34:24;10.10;99.90
6810;DHT22;3443;48.812;9.112;2024-03-17T08:36:50;10.10;99.90
6810;DHT22;3443;48.812;9.112;2024-03-17T08:39:15;10.00;99.90
6810;DHT22;3443;48.812;9.112;2024-03-17T08:41:41;10.10;99.90
6810;DHT22;3443;48.812;9.112;2024-03-17T08:44:09;10.10;99.90
6810;DHT22;3443;48.812;9.112;2024-03-17T08:46:35;10.30;99.90
6810;DHT22;3443;48.812;9.112;2024-03-17T08:49:00;10.50;99.90
6810;DHT22;3443;48.812;9.112;2024-03-17T08:51:26;10.50;99.90
6810;DHT22;3443;48.812;9.112;2024-03-17T08:53:53;10.50;99.90
6810;DHT22;3443;48.812;9.112;2024-03-17T08:56:18;10.50;99.90
6810;DHT22;3443;48.812;9.112;2024-03-17T08:58:45;10.50;99.90
6810;DHT22;3443;48.812;9.112;2024-03-17T09:01:14;10.40;99.90
6810;DHT22;3443;48.812;9.112;2024-03-17T09:03:40;10.60;99.90
6810;DHT22;3443;48.812;9.112;2024-03-17T09:06:15;10.70;99.90
6810;DHT22;3443;48.812;9.112;2024-03-17T09:08:42;10.70;99.90
6810;DHT22;3443;48.812;9.112;2024-03-17T09:11:12;10.80;99.90
6810;DHT22;3443;48.812;9.112;2024-03-17T09:13:38;10.90;99.90
6810;DHT22;3443;48.812;9.112;2024-03-17T09:16:03;11.00;99.90
6810;DHT22;3443;48.812;9.112;2024-03-17T09:18:31;11.00;99.90
6810;DHT22;3443;48.812;9.112;2024-03-17T09:21:07;11.10;99.90
6810;DHT22;3443;48.812;9.112;2024-03-17T09:23:39;11.20;99.90
6810;DHT22;3443;48.812;9.112;2024-03-17T09:26:06;11.10;99.90
6810;DHT22;3443;48.812;9.112;2024-03-17T09:28:34;11.20;99.90
6810;DHT22;3443;48.812;9.112;2024-03-17T09:31:00;11.30;99.90
6810;DHT22;3443;48.812;9.112;2024-03-17T09:33:28;11.40;99.90
6810;DHT22;3443;48.812;9.112;2024-03-17T09:36:13;11.60;99.90
6810;DHT22;3443;48.812;9.112;2024-03-17T09:38:39;11.70;99.90
6810;DHT22;3443;48.812;9.112;2024-03-17T09:41:06;11.80;99.90
6810;DHT22;3443;48.812;9.112;2024-03-17T09:43:34;11.90;99.90
6810;DHT22;3443;48.812;9.112;2024-03-17T09:46:03;12.00;99.90
6810;DHT22;3443;48.812;9.112;2024-03-17T09:48:29;11.80;99.90
6810;DHT22;3443;48.812;9.112;2024-03-17T09:50:56;11.70;99.90
6810;DHT22;3443;48.812;9.112;2024-03-17T09:53:34;11.80;99.90
6810;DHT22;3443;48.812;9.112;2024-03-17T09:56:08;11.80;99.90
6810;DHT22;3443;48.812;9.112;2024-03-17T09:58:34;11.80;99.90
6810;DHT22;3443;48.812;9.112;2024-03-17T10:01:00;11.70;99.90
6810;DHT22;3443;48.812;9.112;2024-03-17T10:06:08;11.60;99.90
6810;DHT22;3443;48.812;9.112;2024-03-17T10:08:43;11.70;99.90
6810;DHT22;3443;48.812;9.112;2024-03-17T10:11:09;11.90;99.90
6810;DHT22;3443;48.812;9.112;2024-03-17T10:13:35;12.00;99.90
6810;DHT22;3443;48.812;9.112;2024-03-17T10:16:00;12.10;99.90
6810;DHT22;3443;48.812;9.112;2024-03-17T10:18:26;12.30;99.90
6810;DHT22;3443;48.812;9.112;2024-03-17T10:23:23;12.50;99.90
6810;DHT22;3443;48.812;9.112;2024-03-17T10:25:48;12.30;99.90
6810;DHT22;3443;48.812;9.112;2024-03-17T10:28:16;12.20;99.90
6810;DHT22;3443;48.812;9.112;2024-03-17T10:30:44;12.10;99.90
6810;DHT22;3443;48.812;9.112;2024-03-17T10:33:23;12.00;99.90
6810;DHT22;3443;48.812;9.112;2024-03-17T10:35:50;12.00;99.90
6810;DHT22;3443;48.812;9.112;2024-03-17T10:38:23;12.20;99.90
6810;DHT22;3443;48.812;9.112;2024-03-17T10:40:48;12.30;99.90
6810;DHT22;3443;48.812;9.112;2024-03-17T10:43:14;12.40;99.90
6810;DHT22;3443;48.812;9.112;2024-03-17T10:45:40;12.40;99.90
6810;DHT22;3443;48.812;9.112;2024-03-17T10:48:07;12.60;99.90
6810;DHT22;3443;48.812;9.112;2024-03-17T10:57:58;13.30;99.90
6810;DHT22;3443;48.812;9.112;2024-03-17T11:00:25;12.90;99.90
6810;DHT22;3443;48.812;9.112;2024-03-17T18:38:22;11.10;99.90
6810;DHT22;3443;48.812;9.112;2024-03-17T18:43:23;11.00;99.90
6810;DHT22;3443;48.812;9.112;2024-03-17T18:45:49;11.00;99.90
6810;DHT22;3443;48.812;9.112;2024-03-17T18:48:15;11.00;99.90
6810;DHT22;3443;48.812;9.112;2024-03-17T18:53:07;10.90;99.90
